Time;durP1;ratioP1;P1;durP2;ratioP2;P2;SDS_P1;SDS_P2;PMS_P1;PMS_P2;Temp;Humidity;BMP_temperature;BMP_pressure;BME280_temperature;BME280_humidity;BME280_pressure;Samples;Min_cycle;Max_cycle;Signal;HPM_P1;HPM_P2
2024/04/25 00:01:34;;;;;;;55.72;28.98;;;4.40;99.90;;;;;;6431623;22;20013;-85
2024/04/25 00:04:00;;;;;;;55.15;29.02;;;4.40;99.90;;;;;;6431352;22;20021;-85
2024/04/25 00:06:25;;;;;;;57.83;29.30;;;4.40;99.90;;;;;;6431309;22;20012;-85
2024/04/25 00:08:51;;;;;;;50.38;28.45;;;4.50;99.90;;;;;;6475551;22;20010;-85
2024/04/25 00:11:19;;;;;;;49.95;29.13;;;4.50;99.90;;;;;;6432087;22;20404;-85
2024/04/25 00:13:45;;;;;;;72.07;43.30;;;4.50;99.90;;;;;;6474787;22;20016;-85
2024/04/25 00:16:11;;;;;;;55.97;31.13;;;4.50;99.90;;;;;;6431374;22;20005;-85
2024/04/25 00:18:36;;;;;;;52.28;28.75;;;4.50;99.90;;;;;;6475471;22;20010;-85
2024/04/25 00:21:02;;;;;;;47.65;28.50;;;4.50;99.90;;;;;;6475626;22;20452;-85
2024/04/25 00:23:28;;;;;;;54.53;29.55;;;4.50;99.90;;;;;;6475323;22;19998;-84
2024/04/25 00:25:54;;;;;;;51.70;27.92;;;4.50;99.90;;;;;;6431781;22;19998;-85
2024/04/25 00:28:20;;;;;;;51.10;29.70;;;4.50;99.90;;;;;;6475243;22;20479;-85
2024/04/25 00:30:47;;;;;;;50.20;27.38;;;4.50;99.90;;;;;;6475459;22;20015;-85
2024/04/25 00:33:12;;;;;;;48.40;28.35;;;4.50;99.90;;;;;;6474949;22;20388;-85
2024/04/25 00:35:38;;;;;;;50.08;29.42;;;4.50;99.90;;;;;;6475272;22;20026;-85
2024/04/25 00:38:04;;;;;;;50.30;28.75;;;4.40;99.90;;;;;;6475513;22;20072;-85
2024/04/25 00:40:31;;;;;;;55.05;30.48;;;4.40;99.90;;;;;;6430866;22;20045;-85
2024/04/25 00:42:59;;;;;;;76.35;42.60;;;4.40;99.90;;;;;;6430850;22;20006;-85
2024/04/25 00:45:25;;;;;;;58.00;32.72;;;4.40;99.90;;;;;;6475009;22;20405;-85
2024/04/25 00:47:51;;;;;;;58.80;31.70;;;4.50;99.90;;;;;;6475100;22;20021;-84
2024/04/25 00:50:18;;;;;;;55.47;30.33;;;4.50;99.90;;;;;;6475378;22;19994;-82
2024/04/25 00:52:45;;;;;;;54.53;30.00;;;4.40;99.90;;;;;;6473997;22;20483;-82
2024/04/25 00:55:10;;;;;;;53.42;29.42;;;4.50;99.90;;;;;;6475150;22;20010;-82
2024/04/25 00:57:37;;;;;;;51.97;28.52;;;4.50;99.90;;;;;;6430605;22;20106;-82
2024/04/25 01:00:04;;;;;;;51.58;29.08;;;4.50;99.90;;;;;;6430873;22;20002;-82
2024/04/25 01:02:31;;;;;;;50.05;29.48;;;4.40;99.90;;;;;;6430585;22;20038;-82
2024/04/25 01:04:59;;;;;;;54.75;29.13;;;4.50;99.90;;;;;;6475856;22;20424;-81
2024/04/25 01:07:25;;;;;;;67.45;38.22;;;4.50;99.90;;;;;;6474656;22;20009;-81
2024/04/25 01:09:55;;;;;;;85.95;51.88;;;4.50;99.90;;;;;;6430887;22;20101;-81
2024/04/25 01:12:22;;;;;;;77.25;43.63;;;4.50;99.90;;;;;;6430465;22;20344;-83
2024/04/25 01:14:48;;;;;;;60.78;33.53;;;4.50;99.90;;;;;;6474697;22;20021;-83
2024/04/25 01:17:14;;;;;;;50.92;27.75;;;4.50;99.90;;;;;;6475669;22;20123;-83
2024/04/25 01:19:39;;;;;;;50.90;28.08;;;4.50;99.90;;;;;;6430945;22;20005;-83
2024/04/25 01:22:05;;;;;;;57.17;29.40;;;4.40;99.90;;;;;;6474647;22;20356;-83
2024/04/25 01:24:35;;;;;;;50.88;28.30;;;4.50;99.90;;;;;;6430360;22;20565;-82
2024/04/25 01:27:03;;;;;;;52.60;29.13;;;4.50;99.90;;;;;;6430310;22;20006;-82
2024/04/25 01:29:30;;;;;;;50.67;28.73;;;4.50;99.90;;;;;;6474703;22;19994;-82
2024/04/25 01:31:56;;;;;;;49.63;27.13;;;4.50;99.90;;;;;;6475328;22;20290;-83
2024/04/25 01:34:24;;;;;;;101.60;62.50;;;4.50;99.90;;;;;;6474404;22;20016;-83
2024/04/25 01:36:50;;;;;;;90.88;53.10;;;4.50;99.90;;;;;;6474184;22;20006;-83
2024/04/25 01:39:17;;;;;;;69.00;36.90;;;4.60;99.90;;;;;;6474692;22;20002;-83
2024/04/25 01:41:43;;;;;;;57.78;31.52;;;4.50;99.90;;;;;;6473645;22;20002;-83
2024/04/25 01:44:09;;;;;;;57.97;32.35;;;4.60;99.90;;;;;;6430848;22;19994;-83
2024/04/25 01:46:35;;;;;;;52.78;29.42;;;4.60;99.90;;;;;;6429835;22;20020;-83
2024/04/25 01:49:01;;;;;;;55.03;29.63;;;4.60;99.90;;;;;;6474939;22;20084;-83
2024/04/25 01:51:28;;;;;;;49.88;29.25;;;4.60;99.90;;;;;;6474136;22;20013;-83
2024/04/25 01:53:54;;;;;;;51.83;28.55;;;4.60;99.90;;;;;;6474717;22;20380;-83
2024/04/25 01:56:20;;;;;;;56.17;28.90;;;4.60;99.90;;;;;;6475043;22;20010;-83
2024/04/25 01:58:45;;;;;;;56.45;31.30;;;4.50;99.90;;;;;;6474881;22;20016;-83
2024/04/25 02:01:11;;;;;;;76.72;44.42;;;4.60;99.90;;;;;;6474241;22;20423;-82
2024/04/25 02:03:36;;;;;;;61.25;34.05;;;4.60;99.90;;;;;;6474384;22;20021;-82
2024/04/25 02:06:03;;;;;;;54.72;29.85;;;4.60;99.90;;;;;;6473332;22;20006;-81
2024/04/25 02:08:29;;;;;;;51.13;28.48;;;4.60;99.90;;;;;;6474515;22;20022;-81
2024/04/25 02:10:54;;;;;;;56.05;31.20;;;4.50;99.90;;;;;;6475056;22;20017;-81
2024/04/25 02:13:20;;;;;;;55.60;29.05;;;4.50;99.90;;;;;;6474357;22;20014;-81
2024/04/25 02:15:46;;;;;;;56.38;31.63;;;4.50;99.90;;;;;;6471534;22;20042;-83
2024/04/25 02:18:12;;;;;;;55.97;30.35;;;4.40;99.90;;;;;;6473680;22;20088;-81
2024/04/25 02:26:10;;;;;;;68.90;38.15;;;4.40;99.90;;;;;;6474768;22;20012;-82
2024/04/25 02:28:36;;;;;;;59.97;33.70;;;4.30;99.90;;;;;;6429570;22;20041;-82
2024/04/25 02:31:02;;;;;;;58.25;30.13;;;4.30;99.90;;;;;;6429427;22;20305;-81
2024/04/25 02:33:28;;;;;;;54.20;30.80;;;4.30;99.90;;;;;;6429608;22;20009;-82
2024/04/25 02:35:53;;;;;;;58.42;29.45;;;4.30;99.90;;;;;;6474387;22;20020;-82
2024/04/25 02:38:19;;;;;;;57.83;31.38;;;4.30;99.90;;;;;;6430227;22;20376;-83
2024/04/25 02:40:48;;;;;;;60.47;31.77;;;4.30;99.90;;;;;;6474315;22;20013;-82
2024/04/25 02:43:13;;;;;;;62.50;31.63;;;4.30;99.90;;;;;;6473956;22;20010;-82
2024/04/25 02:45:39;;;;;;;62.78;32.72;;;4.40;99.90;;;;;;6429739;22;20006;-82
2024/04/25 02:48:05;;;;;;;61.08;32.03;;;4.40;99.90;;;;;;6473566;22;20002;-82
2024/04/25 02:50:31;;;;;;;62.80;31.85;;;4.30;99.90;;;;;;6473669;22;20014;-81
2024/04/25 02:52:57;;;;;;;62.15;34.20;;;4.30;99.90;;;;;;6474547;22;20383;-82
2024/04/25 02:55:23;;;;;;;62.28;33.47;;;4.30;99.90;;;;;;6474266;22;20323;-81
2024/04/25 02:57:48;;;;;;;60.63;32.95;;;4.30;99.90;;;;;;6474197;22;20038;-82
2024/04/25 03:00:15;;;;;;;58.83;31.55;;;4.30;99.90;;;;;;6473810;22;20046;-82
2024/04/25 03:02:41;;;;;;;61.25;31.80;;;4.30;99.90;;;;;;6473862;22;20460;-82
2024/04/25 03:05:07;;;;;;;60.80;31.55;;;4.30;99.90;;;;;;6430614;22;20009;-82
2024/04/25 03:07:36;;;;;;;66.30;34.08;;;4.30;99.90;;;;;;6429744;22;20317;-82
2024/04/25 03:10:02;;;;;;;64.22;32.65;;;4.30;99.90;;;;;;6474200;22;20010;-82
2024/04/25 03:12:28;;;;;;;64.68;33.97;;;4.30;99.90;;;;;;6429739;22;20020;-82
2024/04/25 03:14:53;;;;;;;78.00;36.60;;;4.30;99.90;;;;;;6475190;22;20658;-82
2024/04/25 03:17:19;;;;;;;60.08;32.28;;;4.30;99.90;;;;;;6476716;22;19998;-82
2024/04/25 03:19:45;;;;;;;61.15;32.33;;;4.20;99.90;;;;;;6475657;22;20071;-82
2024/04/25 03:22:11;;;;;;;60.50;32.17;;;4.20;99.90;;;;;;6476091;22;20025;-82
2024/04/25 03:24:37;;;;;;;61.03;31.65;;;4.20;99.90;;;;;;6475716;22;20017;-81
2024/04/25 03:27:02;;;;;;;60.53;31.70;;;4.10;99.90;;;;;;6476031;22;20001;-81
2024/04/25 03:29:28;;;;;;;59.45;32.58;;;4.10;99.90;;;;;;6476079;22;20006;-81
2024/04/25 03:31:53;;;;;;;54.90;29.98;;;4.20;99.90;;;;;;6476554;22;20478;-82
2024/04/25 03:34:20;;;;;;;71.15;36.15;;;4.10;99.90;;;;;;6475896;22;20006;-81
2024/04/25 03:36:46;;;;;;;97.60;45.00;;;4.10;99.90;;;;;;6431768;22;20312;-82
2024/04/25 03:39:12;;;;;;;67.28;38.50;;;4.00;99.90;;;;;;6475825;22;20006;-82
2024/04/25 03:41:38;;;;;;;73.00;37.95;;;4.10;99.90;;;;;;6431508;22;20076;-82
2024/04/25 03:44:04;;;;;;;67.05;32.92;;;4.00;99.90;;;;;;6476280;22;20364;-82
2024/04/25 03:46:30;;;;;;;90.93;42.88;;;4.00;99.90;;;;;;6430932;22;20010;-82
2024/04/25 03:48:56;;;;;;;84.53;38.72;;;4.00;99.90;;;;;;6431691;22;20269;-82
2024/04/25 03:51:21;;;;;;;72.05;35.65;;;4.00;99.90;;;;;;6431446;22;20010;-82
2024/04/25 03:53:47;;;;;;;82.85;40.30;;;4.00;99.90;;;;;;6431590;22;20016;-81
2024/04/25 03:56:13;;;;;;;148.90;65.47;;;4.00;99.90;;;;;;6476263;22;20002;-82
2024/04/25 03:58:39;;;;;;;185.55;78.18;;;4.00;99.90;;;;;;6475620;22;20424;-81
2024/04/25 04:01:05;;;;;;;91.57;42.78;;;3.90;99.90;;;;;;6475486;22;20428;-81
2024/04/25 04:03:31;;;;;;;94.90;46.63;;;3.90;99.90;;;;;;6475409;22;20020;-82
2024/04/25 04:05:56;;;;;;;101.85;46.33;;;3.90;99.90;;;;;;6475265;22;20014;-83
2024/04/25 04:08:22;;;;;;;76.88;38.65;;;3.90;99.90;;;;;;6431161;22;20356;-83
2024/04/25 04:10:47;;;;;;;84.43;39.88;;;3.90;99.90;;;;;;6432209;22;20002;-83
2024/04/25 04:13:13;;;;;;;86.55;41.53;;;3.90;99.90;;;;;;6475633;22;20050;-83
2024/04/25 04:15:39;;;;;;;82.13;42.30;;;3.90;99.90;;;;;;6475383;22;20018;-83
2024/04/25 04:18:05;;;;;;;70.05;34.22;;;4.00;99.90;;;;;;6474718;22;20014;-83
2024/04/25 04:20:30;;;;;;;90.93;41.20;;;4.00;99.90;;;;;;6430083;22;20531;-81
2024/04/25 04:22:56;;;;;;;76.20;38.17;;;3.90;99.90;;;;;;6431421;22;20002;-81
2024/04/25 04:25:22;;;;;;;75.32;39.15;;;3.90;99.90;;;;;;6431484;22;20501;-81
2024/04/25 04:27:47;;;;;;;69.38;35.05;;;3.90;99.90;;;;;;6473693;22;20021;-81
2024/04/25 04:30:13;;;;;;;60.67;31.85;;;3.90;99.90;;;;;;6475035;22;20009;-80
2024/04/25 04:32:39;;;;;;;60.95;30.67;;;3.90;99.90;;;;;;6430397;22;20002;-81
2024/04/25 04:35:06;;;;;;;62.95;33.33;;;4.00;99.90;;;;;;6476210;22;20416;-81
2024/04/25 04:37:32;;;;;;;61.08;31.63;;;3.90;99.90;;;;;;6430077;22;20309;-81
2024/04/25 04:39:58;;;;;;;74.85;36.28;;;4.00;99.90;;;;;;6475352;22;20020;-82
2024/04/25 04:42:23;;;;;;;63.13;32.67;;;4.00;99.90;;;;;;6474908;22;20021;-82
2024/04/25 04:44:49;;;;;;;79.80;40.58;;;4.10;99.90;;;;;;6475394;22;20014;-83
2024/04/25 04:47:15;;;;;;;68.07;33.10;;;4.20;99.90;;;;;;6475674;22;19998;-83
2024/04/25 04:49:41;;;;;;;59.47;32.95;;;4.20;99.90;;;;;;6430868;22;20017;-83
2024/04/25 04:52:06;;;;;;;60.42;31.48;;;4.30;99.90;;;;;;6474388;22;20423;-84
2024/04/25 04:54:32;;;;;;;62.72;31.95;;;4.40;99.90;;;;;;6474919;22;20024;-84
2024/04/25 04:56:58;;;;;;;60.03;30.67;;;4.40;99.90;;;;;;6475133;22;20018;-85
2024/04/25 04:59:23;;;;;;;59.60;30.33;;;4.40;99.90;;;;;;6468549;22;20010;-83
2024/04/25 05:01:49;;;;;;;55.80;29.08;;;4.30;99.90;;;;;;6475150;22;20012;-82
2024/04/25 05:04:15;;;;;;;63.30;30.55;;;4.40;99.90;;;;;;6473317;22;20002;-82
2024/04/25 05:06:40;;;;;;;65.25;34.22;;;4.40;99.90;;;;;;6475024;22;20005;-86
2024/04/25 05:09:06;;;;;;;74.95;36.60;;;4.50;99.90;;;;;;6473868;22;20002;-83
2024/04/25 05:11:32;;;;;;;70.75;37.13;;;4.50;99.90;;;;;;6469903;22;19998;-82
2024/04/25 05:14:00;;;;;;;70.55;37.72;;;4.50;99.90;;;;;;6427023;22;19998;-84
2024/04/25 05:16:25;;;;;;;66.28;36.80;;;4.60;99.90;;;;;;6470780;22;20042;-82
2024/04/25 05:18:52;;;;;;;64.55;35.50;;;4.60;99.90;;;;;;6469217;22;20010;-81
2024/04/25 05:21:17;;;;;;;66.07;33.08;;;4.60;99.90;;;;;;6467403;22;20006;-82
2024/04/25 05:23:43;;;;;;;63.85;33.08;;;4.70;99.90;;;;;;6464707;22;20020;-84
2024/04/25 05:26:11;;;;;;;63.47;33.17;;;4.70;99.90;;;;;;6470056;22;20060;-80
2024/04/25 05:28:36;;;;;;;61.85;32.10;;;4.70;99.90;;;;;;6423201;22;20565;-82
2024/04/25 05:31:02;;;;;;;57.95;32.30;;;4.80;99.90;;;;;;6467572;22;20005;-82
2024/04/25 05:33:28;;;;;;;63.25;31.95;;;4.80;99.90;;;;;;6422940;22;20390;-80
2024/04/25 05:35:56;;;;;;;57.35;29.98;;;4.90;99.90;;;;;;6423311;22;20088;-85
2024/04/25 05:38:21;;;;;;;55.50;28.55;;;4.90;99.90;;;;;;6468255;22;19998;-81
2024/04/25 05:40:47;;;;;;;50.78;26.95;;;5.00;99.90;;;;;;6473004;22;20368;-82
2024/04/25 05:43:12;;;;;;;49.90;28.02;;;5.10;99.90;;;;;;6429613;22;20050;-82
2024/04/25 05:45:38;;;;;;;37.95;22.63;;;5.10;99.90;;;;;;6475353;22;20324;-85
2024/04/25 05:48:04;;;;;;;43.63;24.63;;;5.10;99.90;;;;;;6475596;22;20001;-85
2024/04/25 05:50:29;;;;;;;40.13;21.63;;;5.30;99.90;;;;;;6475099;22;20002;-80
2024/04/25 05:52:55;;;;;;;36.83;21.98;;;5.50;99.90;;;;;;6475887;22;20001;-83
2024/04/25 05:55:20;;;;;;;38.03;21.63;;;5.60;99.90;;;;;;6475431;22;20330;-81
2024/04/25 05:57:46;;;;;;;38.50;21.42;;;5.60;99.90;;;;;;6475046;22;20314;-86
2024/04/25 06:00:12;;;;;;;33.33;20.35;;;5.60;99.90;;;;;;6429600;22;20596;-86
2024/04/25 06:02:37;;;;;;;38.08;21.23;;;5.50;99.90;;;;;;6475273;22;20001;-86
2024/04/25 06:05:03;;;;;;;36.08;20.92;;;5.50;99.90;;;;;;6466714;22;20102;-86
2024/04/25 06:07:29;;;;;;;34.50;20.38;;;5.60;99.90;;;;;;6426675;22;20088;-86
2024/04/25 06:09:54;;;;;;;33.00;19.40;;;5.60;99.90;;;;;;6426958;22;20025;-86
2024/04/25 06:12:20;;;;;;;34.17;20.13;;;5.70;99.90;;;;;;6427098;22;20360;-86
2024/04/25 06:14:45;;;;;;;29.23;17.70;;;5.80;99.90;;;;;;6473289;22;20309;-86
2024/04/25 06:17:11;;;;;;;31.73;18.13;;;5.90;99.90;;;;;;6473661;22;20446;-85
2024/04/25 06:19:37;;;;;;;29.75;17.05;;;6.00;99.90;;;;;;6428741;22;20084;-87
2024/04/25 06:22:02;;;;;;;30.92;18.20;;;6.00;99.90;;;;;;6473187;22;20009;-84
2024/04/25 06:24:28;;;;;;;28.83;17.73;;;6.10;99.90;;;;;;6429553;22;20097;-85
2024/04/25 06:26:54;;;;;;;32.22;20.13;;;6.10;99.90;;;;;;6429481;22;20479;-86
2024/04/25 06:29:20;;;;;;;29.70;17.55;;;6.10;99.90;;;;;;6382037;22;20010;-84
2024/04/25 06:31:46;;;;;;;28.88;17.77;;;6.20;99.90;;;;;;6474658;22;20323;-87
2024/04/25 06:34:11;;;;;;;24.30;17.13;;;6.40;99.90;;;;;;6473264;22;20412;-83
2024/04/25 06:36:37;;;;;;;24.67;15.60;;;6.30;99.90;;;;;;6429217;22;20017;-85
2024/04/25 06:39:03;;;;;;;26.15;17.40;;;6.40;99.90;;;;;;6473784;22;20370;-84
2024/04/25 06:41:30;;;;;;;22.98;15.35;;;6.30;99.90;;;;;;6473402;22;20017;-84
2024/04/25 06:43:56;;;;;;;27.67;16.25;;;6.40;99.90;;;;;;6474133;22;20009;-84
2024/04/25 06:46:22;;;;;;;25.63;16.02;;;6.40;99.90;;;;;;6473784;22;20408;-84
2024/04/25 06:48:48;;;;;;;25.02;16.00;;;6.60;99.90;;;;;;6473251;22;20083;-85
2024/04/25 06:51:18;;;;;;;22.52;15.20;;;6.60;99.90;;;;;;6429031;22;20005;-84
2024/04/25 06:53:47;;;;;;;22.75;15.05;;;6.60;99.90;;;;;;6472912;22;20013;-84
2024/04/25 06:56:13;;;;;;;24.00;14.32;;;6.60;99.90;;;;;;6474276;22;19994;-84
2024/04/25 06:58:39;;;;;;;21.30;13.88;;;6.60;99.90;;;;;;6429431;22;20419;-84
2024/04/25 07:01:05;;;;;;;20.15;13.52;;;6.50;99.90;;;;;;6473726;22;20002;-84
2024/04/25 07:03:31;;;;;;;23.45;14.73;;;6.60;99.90;;;;;;6472673;22;20021;-84
2024/04/25 07:05:57;;;;;;;19.90;14.23;;;6.90;99.90;;;;;;6429426;22;20312;-84
2024/04/25 07:08:23;;;;;;;21.15;14.38;;;7.20;99.90;;;;;;6429416;22;20012;-84
2024/04/25 07:10:49;;;;;;;20.92;13.93;;;7.20;99.90;;;;;;6474387;22;20009;-84
2024/04/25 07:13:14;;;;;;;19.60;12.50;;;7.10;99.90;;;;;;6473468;22;20529;-84
2024/04/25 07:15:40;;;;;;;17.75;12.70;;;7.30;99.90;;;;;;6473818;22;20018;-84
2024/04/25 07:18:07;;;;;;;18.73;14.15;;;7.50;99.90;;;;;;6473429;22;20001;-84
2024/04/25 07:20:36;;;;;;;21.20;13.18;;;7.50;99.90;;;;;;6429280;22;20423;-84
2024/04/25 07:23:02;;;;;;;19.10;14.25;;;7.70;99.90;;;;;;6473906;22;19997;-84
2024/04/25 07:25:28;;;;;;;19.02;13.32;;;8.00;99.90;;;;;;6473077;22;20408;-84
2024/04/25 07:27:54;;;;;;;18.13;13.65;;;8.30;99.90;;;;;;6473690;22;20010;-84
2024/04/25 07:30:20;;;;;;;16.65;12.18;;;8.20;99.90;;;;;;6473792;22;20018;-84
2024/04/25 07:32:46;;;;;;;18.60;12.68;;;8.20;99.90;;;;;;6473606;22;20009;-84
2024/04/25 07:35:14;;;;;;;18.50;13.60;;;8.20;99.90;;;;;;6474128;22;20008;-84
2024/04/25 07:37:40;;;;;;;17.20;12.23;;;8.10;99.90;;;;;;6472730;22;20014;-84
2024/04/25 07:40:10;;;;;;;21.00;12.98;;;8.40;99.90;;;;;;6473885;22;20018;-84
2024/04/25 07:42:36;;;;;;;12.50;10.82;;;8.40;99.90;;;;;;6473260;22;20010;-84
2024/04/25 07:45:02;;;;;;;15.40;10.65;;;8.20;99.90;;;;;;6473741;22;20084;-84
2024/04/25 07:47:28;;;;;;;16.13;12.00;;;8.00;96.90;;;;;;6428630;22;20002;-84
2024/04/25 07:49:55;;;;;;;16.20;11.60;;;8.10;99.90;;;;;;6474607;22;20008;-84
2024/04/25 07:52:21;;;;;;;16.10;10.95;;;8.00;99.90;;;;;;6473180;22;20010;-84
2024/04/25 07:54:48;;;;;;;17.52;12.05;;;8.00;99.90;;;;;;6474147;22;20012;-84
2024/04/25 07:57:14;;;;;;;14.85;11.07;;;8.30;99.90;;;;;;6473524;22;20002;-84
2024/04/25 07:59:40;;;;;;;15.38;11.05;;;8.60;99.90;;;;;;6473871;22;19998;-83
2024/04/25 08:02:06;;;;;;;13.80;10.55;;;8.40;94.80;;;;;;6476035;22;20086;-83
2024/04/25 08:04:31;;;;;;;14.48;10.73;;;8.40;99.90;;;;;;6475587;22;20050;-83
2024/04/25 08:06:57;;;;;;;16.67;12.90;;;8.60;99.70;;;;;;6475305;22;20017;-83
2024/04/25 08:09:23;;;;;;;12.07;9.88;;;8.80;98.30;;;;;;6475777;22;20010;-83
2024/04/25 08:11:48;;;;;;;12.02;9.93;;;8.60;93.90;;;;;;6475650;22;20010;-83
2024/04/25 08:14:14;;;;;;;12.95;10.52;;;8.60;97.20;;;;;;6431723;22;19997;-83
2024/04/25 08:16:40;;;;;;;13.98;10.38;;;8.70;98.20;;;;;;6475621;22;20431;-83
2024/04/25 08:19:05;;;;;;;14.38;11.50;;;8.80;92.00;;;;;;6475495;22;20006;-83
2024/04/25 08:21:31;;;;;;;13.80;11.07;;;9.00;87.60;;;;;;6475381;22;20058;-83
2024/04/25 08:23:56;;;;;;;18.23;11.57;;;9.30;87.50;;;;;;6475107;22;20451;-83
2024/04/25 08:26:23;;;;;;;14.85;10.88;;;9.80;92.40;;;;;;6431067;22;20416;-83
2024/04/25 08:28:49;;;;;;;14.48;10.70;;;10.00;88.50;;;;;;6476220;22;20038;-83
2024/04/25 08:31:15;;;;;;;15.35;11.05;;;10.20;86.80;;;;;;6475259;22;20081;-83
2024/04/25 08:33:42;;;;;;;15.90;11.43;;;10.30;83.90;;;;;;6475704;22;20340;-84
2024/04/25 08:36:08;;;;;;;15.77;11.73;;;10.30;83.80;;;;;;6430694;22;20005;-83
2024/04/25 08:38:35;;;;;;;17.17;12.43;;;10.30;83.80;;;;;;6474920;22;20010;-83
2024/04/25 08:41:04;;;;;;;18.25;12.32;;;10.80;83.30;;;;;;6476237;22;20002;-84
2024/04/25 08:43:30;;;;;;;17.05;12.40;;;10.90;77.70;;;;;;6475269;22;20084;-83
2024/04/25 08:45:57;;;;;;;17.45;12.25;;;11.30;79.20;;;;;;6475337;22;20020;-84
2024/04/25 08:48:25;;;;;;;15.18;12.02;;;11.60;76.60;;;;;;6475406;22;20088;-83
2024/04/25 08:50:53;;;;;;;17.42;11.82;;;11.70;75.00;;;;;;6475338;22;20016;-83
2024/04/25 08:53:21;;;;;;;18.98;11.27;;;11.70;74.60;;;;;;6477691;22;20005;-83
2024/04/25 08:55:49;;;;;;;13.48;10.63;;;11.40;73.00;;;;;;6477457;22;20084;-83
2024/04/25 08:58:15;;;;;;;18.55;11.32;;;11.20;71.90;;;;;;6432942;22;20006;-83
2024/04/25 09:00:41;;;;;;;15.07;11.30;;;10.90;71.70;;;;;;6476631;22;20016;-84
2024/04/25 09:03:08;;;;;;;15.73;11.57;;;10.90;73.20;;;;;;6475160;22;20425;-83
2024/04/25 09:05:34;;;;;;;15.85;11.73;;;11.00;73.90;;;;;;6430513;22;20016;-83
2024/04/25 09:08:00;;;;;;;17.77;11.55;;;11.10;73.80;;;;;;6430407;22;20006;-84
2024/04/25 09:10:36;;;;;;;15.52;10.82;;;11.20;71.20;;;;;;6430966;22;20325;-83
2024/04/25 09:13:01;;;;;;;14.00;10.05;;;11.20;70.90;;;;;;6474443;22;20006;-84
2024/04/25 09:15:27;;;;;;;17.15;11.02;;;11.60;71.40;;;;;;6430628;22;20316;-84
2024/04/25 09:17:58;;;;;;;17.13;11.60;;;11.60;69.60;;;;;;6474921;22;20010;-84
2024/04/25 09:20:26;;;;;;;19.75;13.63;;;11.30;68.20;;;;;;6475101;22;20009;-83
2024/04/25 09:22:52;;;;;;;19.67;12.52;;;11.30;69.90;;;;;;6475480;22;20002;-83
2024/04/25 09:25:17;;;;;;;15.98;11.32;;;11.30;72.60;;;;;;6474507;22;20006;-83
2024/04/25 09:27:44;;;;;;;22.15;12.70;;;11.10;68.60;;;;;;6474631;22;20020;-83
2024/04/25 09:30:10;;;;;;;33.72;18.65;;;11.20;70.10;;;;;;6430263;22;20002;-83
2024/04/25 09:32:40;;;;;;;59.30;29.05;;;11.00;69.30;;;;;;6429753;22;20318;-83
2024/04/25 09:35:07;;;;;;;19.17;12.38;;;10.60;68.60;;;;;;6475232;22;20025;-85
2024/04/25 09:37:33;;;;;;;16.38;13.32;;;10.40;68.40;;;;;;6474852;22;20009;-85
2024/04/25 09:39:59;;;;;;;19.08;15.02;;;10.00;68.10;;;;;;6474240;22;20052;-83
2024/04/25 09:42:26;;;;;;;29.20;16.98;;;10.10;70.80;;;;;;6430249;22;20018;-83
2024/04/25 09:44:54;;;;;;;21.92;14.18;;;10.00;70.50;;;;;;6474806;22;20010;-82
2024/04/25 09:47:36;;;;;;;24.40;12.20;;;10.20;69.50;;;;;;6475015;22;20005;-83
2024/04/25 09:50:11;;;;;;;31.88;19.48;;;10.50;70.40;;;;;;6474925;22;20087;-83
2024/04/25 09:52:42;;;;;;;9.82;8.77;;;10.60;68.60;;;;;;6474174;22;20005;-83
2024/04/25 09:55:12;;;;;;;12.55;8.65;;;10.60;66.10;;;;;;6474317;22;20006;-82
2024/04/25 09:57:42;;;;;;;13.75;9.57;;;10.80;66.40;;;;;;6428881;22;20020;-83
2024/04/25 10:00:08;;;;;;;18.25;10.98;;;10.90;67.60;;;;;;6474357;22;20507;-83
2024/04/25 10:02:36;;;;;;;17.67;10.10;;;10.90;66.20;;;;;;6472575;22;19997;-83
2024/04/25 10:05:02;;;;;;;11.65;8.63;;;11.10;66.80;;;;;;6473874;22;20371;-83
2024/04/25 10:07:29;;;;;;;11.02;7.40;;;11.40;65.60;;;;;;6473582;22;20006;-83
2024/04/25 10:09:55;;;;;;;12.90;8.43;;;11.30;60.80;;;;;;6474270;22;20024;-83
2024/04/25 10:12:22;;;;;;;15.73;9.68;;;11.40;59.20;;;;;;6474189;22;20029;-83
2024/04/25 10:15:00;;;;;;;13.20;7.50;;;11.60;59.50;;;;;;6474469;22;20468;-83
2024/04/25 10:17:30;;;;;;;11.30;8.18;;;11.90;59.50;;;;;;6474278;22;20002;-83
2024/04/25 10:19:57;;;;;;;10.55;8.95;;;12.20;61.40;;;;;;6474891;22;19994;-83
2024/04/25 10:22:24;;;;;;;12.55;7.97;;;12.40;59.90;;;;;;6473977;22;20417;-83
2024/04/25 10:24:50;;;;;;;11.88;7.38;;;12.40;58.80;;;;;;6429357;22;20315;-83
2024/04/25 10:27:19;;;;;;;12.65;8.13;;;12.10;59.40;;;;;;6473969;22;20006;-84
2024/04/25 10:29:52;;;;;;;22.70;10.93;;;12.00;61.50;;;;;;6474038;22;20080;-83
2024/04/25 10:32:18;;;;;;;10.73;6.90;;;11.60;60.60;;;;;;6474893;22;20006;-83
2024/04/25 10:34:44;;;;;;;9.10;6.78;;;11.40;60.30;;;;;;6474262;22;20001;-83
2024/04/25 10:37:10;;;;;;;12.27;8.02;;;11.50;59.70;;;;;;6474454;22;20020;-83
2024/04/25 10:39:35;;;;;;;14.10;8.23;;;11.60;61.40;;;;;;6474162;22;20025;-84
2024/04/25 10:42:01;;;;;;;17.35;6.70;;;11.50;59.80;;;;;;6474141;22;20006;-84
2024/04/25 10:44:27;;;;;;;6.45;5.30;;;11.40;59.40;;;;;;6473598;22;19993;-82
2024/04/25 10:46:53;;;;;;;12.52;8.90;;;11.20;59.60;;;;;;6475153;22;20072;-83
2024/04/25 10:49:18;;;;;;;8.65;6.72;;;11.30;59.10;;;;;;6429204;22;20015;-83
2024/04/25 10:51:44;;;;;;;11.18;6.90;;;11.60;59.80;;;;;;6474042;22;20014;-83
2024/04/25 10:54:10;;;;;;;11.65;7.38;;;11.90;60.50;;;;;;6473429;22;20001;-82
2024/04/25 10:56:54;;;;;;;10.15;6.70;;;12.20;61.00;;;;;;6473753;22;20057;-82
2024/04/25 10:59:29;;;;;;;8.82;7.15;;;12.00;59.10;;;;;;6429402;22;20016;-82
2024/04/25 11:02:05;;;;;;;9.30;7.57;;;11.80;59.20;;;;;;6454387;22;20018;-83
2024/04/25 11:04:35;;;;;;;9.57;5.82;;;11.60;58.40;;;;;;6471794;22;20073;-83
2024/04/25 11:07:03;;;;;;;6.40;4.60;;;11.30;55.60;;;;;;6474217;22;20507;-83
2024/04/25 11:09:30;;;;;;;11.85;5.82;;;11.10;55.00;;;;;;6474374;22;20072;-84
2024/04/25 11:11:57;;;;;;;13.60;5.82;;;11.00;55.20;;;;;;6514563;22;20070;-83
2024/04/25 11:14:23;;;;;;;7.93;5.32;;;11.10;56.00;;;;;;6473328;22;20001;-83
2024/04/25 11:16:49;;;;;;;6.72;4.60;;;11.40;56.90;;;;;;6472384;22;20002;-84
2024/04/25 11:19:16;;;;;;;6.43;5.00;;;11.80;58.50;;;;;;6474126;22;20157;-84
2024/04/25 11:21:47;;;;;;;9.65;5.00;;;11.80;57.10;;;;;;6471774;22;20080;-84
2024/04/25 11:24:16;;;;;;;5.80;4.70;;;11.90;55.90;;;;;;6473952;22;20001;-84
2024/04/25 11:26:45;;;;;;;13.77;5.65;;;12.10;55.20;;;;;;6473641;22;20025;-82
2024/04/25 11:29:11;;;;;;;7.72;5.00;;;12.40;57.80;;;;;;6474272;22;19998;-83
2024/04/25 11:31:37;;;;;;;6.78;4.20;;;12.60;56.80;;;;;;6473993;22;20024;-83
2024/04/25 11:34:05;;;;;;;5.20;4.00;;;12.80;55.10;;;;;;6473857;22;20042;-82
2024/04/25 11:36:31;;;;;;;9.07;5.45;;;12.90;54.00;;;;;;6474216;22;20503;-83
2024/04/25 11:38:57;;;;;;;9.32;5.60;;;12.80;53.90;;;;;;6473080;22;20006;-82
2024/04/25 11:41:23;;;;;;;10.73;5.60;;;12.60;53.60;;;;;;6475361;22;20008;-84
2024/04/25 11:43:49;;;;;;;7.38;4.90;;;12.60;53.60;;;;;;6474886;22;19997;-84
2024/04/25 11:46:14;;;;;;;9.20;5.40;;;12.20;53.30;;;;;;6461576;22;20006;-83
2024/04/25 11:48:50;;;;;;;6.63;4.68;;;12.10;55.10;;;;;;6471756;22;20009;-86
2024/04/25 11:51:16;;;;;;;7.03;5.00;;;12.00;55.80;;;;;;6476115;22;20415;-85
2024/04/25 11:53:41;;;;;;;5.18;4.30;;;12.00;55.80;;;;;;6474723;22;20416;-86
2024/04/25 11:56:07;;;;;;;12.77;6.53;;;11.70;54.70;;;;;;6474335;22;20432;-86
2024/04/25 11:58:33;;;;;;;4.80;3.92;;;11.60;55.50;;;;;;6474183;22;20009;-85
2024/04/25 12:00:58;;;;;;;5.72;4.00;;;11.90;54.30;;;;;;6472477;22;20315;-84
2024/04/25 12:03:24;;;;;;;5.90;4.57;;;12.00;53.50;;;;;;6473474;22;20320;-81
2024/04/25 12:05:50;;;;;;;5.10;4.18;;;12.00;53.60;;;;;;6473440;22;20014;-81
2024/04/25 12:08:16;;;;;;;5.82;4.00;;;12.20;54.50;;;;;;6475286;22;20416;-81
2024/04/25 12:10:42;;;;;;;5.15;3.90;;;12.10;53.40;;;;;;6474937;22;20383;-83
2024/04/25 12:13:10;;;;;;;5.72;4.30;;;12.20;54.40;;;;;;6472714;22;20081;-82
2024/04/25 12:15:38;;;;;;;4.38;3.75;;;12.20;53.80;;;;;;6474895;22;20013;-82
2024/04/25 12:18:05;;;;;;;5.60;3.88;;;12.30;54.30;;;;;;6470747;22;20017;-79
2024/04/25 12:20:31;;;;;;;7.70;4.53;;;12.20;52.80;;;;;;6474697;22;20002;-79
2024/04/25 12:22:56;;;;;;;6.90;4.85;;;12.30;53.00;;;;;;6473118;22;20044;-79
2024/04/25 12:25:22;;;;;;;9.88;4.72;;;12.70;53.30;;;;;;6474762;22;20316;-77
2024/04/25 12:27:50;;;;;;;10.65;5.68;;;12.70;51.90;;;;;;6473297;22;20079;-77
2024/04/25 12:30:17;;;;;;;17.23;8.50;;;12.40;49.60;;;;;;6474151;22;20416;-76
2024/04/25 12:32:42;;;;;;;8.02;4.00;;;12.40;49.90;;;;;;6475286;22;20020;-77
2024/04/25 12:35:08;;;;;;;8.85;4.43;;;12.60;50.70;;;;;;6475780;22;20002;-78
2024/04/25 12:37:34;;;;;;;5.68;4.22;;;12.70;50.80;;;;;;6474865;22;20010;-82